Flight Track Log - Related Links

Times and Time Zones

All times are in EDT time to prevent confusion due to time zone crossing. See the AAL1432 flight status page for this flight to view local times or setup timezone preferences in your user account.

Time Position Orientation Groundspeed Altitude Reporting Facility
EDT Latitude Longitude Course Direction KTS MPH feet Rate Location/Type
Mon 09:56:00 AM 21.3508 -87.1150 325° Northwest  Level Estimated
Mon 09:57:00 AM 21.4555 -87.1945 325° Northwest  Level Estimated
Mon 09:58:00 AM 21.5602 -87.2741 325° Northwest  Level Estimated
Mon 09:59:00 AM 21.6648 -87.3539 325° Northwest  Level Estimated
Mon 10:00:00 AM 21.7694 -87.4337 325° Northwest  Level Estimated
Mon 10:01:00 AM 21.8740 -87.5137 325° Northwest  Level Estimated
Mon 10:02:00 AM 21.9785 -87.5938 325° Northwest  Level Estimated
Mon 10:03:00 AM 22.0830 -87.6740 325° Northwest  Level Estimated
Mon 10:04:00 AM 22.1874 -87.7544 325° Northwest  Level Estimated
Mon 10:05:00 AM 22.2918 -87.8348 325° Northwest  Level Estimated
Mon 10:06:00 AM 22.3961 -87.9154 324° Northwest  Level Estimated
Mon 10:07:00 AM 22.5005 -87.9961 324° Northwest  Level Estimated
Mon 10:08:00 AM 22.6047 -88.0769 324° Northwest  Level Estimated
Mon 10:09:00 AM 22.7090 -88.1579 324° Northwest  Level Estimated
Mon 10:10:00 AM 22.8131 -88.2390 324° Northwest  Level Estimated
Mon 10:11:00 AM 22.9173 -88.3201 324° Northwest  Level Estimated
Mon 10:12:00 AM 23.0214 -88.4015 324° Northwest  Level Estimated
Mon 10:13:00 AM 23.1255 -88.4829 324° Northwest  Level Estimated
Mon 10:14:00 AM 23.2295 -88.5645 324° Northwest  Level Estimated
Mon 10:15:00 AM 23.3224 -88.6374 324° Northwest  Level Estimated
Mon 10:16:00 AM 23.4152 -88.7105 324° Northwest  Level Estimated
Mon 10:17:00 AM 23.5080 -88.7836 324° Northwest  Level Estimated
Mon 10:18:00 AM 23.5899 -88.8709 316° Northwest  Level FlightAware Approximate
Mon 10:19:00 AM 23.6718 -88.9583 316° Northwest  Level FlightAware Approximate
Mon 10:20:00 AM 23.7536 -89.0458 316° Northwest  Level FlightAware Approximate
Mon 10:21:00 AM 23.8354 -89.1334 316° Northwest  Level FlightAware Approximate
Mon 10:22:00 AM 23.9171 -89.2211 316° Northwest  Level FlightAware Approximate
Mon 10:23:00 AM 23.9988 -89.3089 316° Northwest  Level FlightAware Approximate
Mon 10:24:00 AM 24.0805 -89.3969 315° West  Level FlightAware Approximate
Mon 10:25:00 AM 24.1620 -89.4849 315° West  Level FlightAware Approximate
Mon 10:26:00 AM 24.2436 -89.5731 315° West  Level FlightAware Approximate
Mon 10:27:00 AM 24.3251 -89.6614 315° West  Level FlightAware Approximate
Mon 10:28:00 AM 24.4065 -89.7498 315° West  Level FlightAware Approximate
Mon 10:29:00 AM 24.4931 -89.8431 318° Northwest  Level FlightAware Approximate
Mon 10:30:00 AM 24.5862 -89.9164 325° Northwest  Level FlightAware Approximate
Mon 10:31:00 AM 24.6799 -89.9887 325° Northwest  Level FlightAware Approximate
Mon 10:32:00 AM 24.7736 -90.0612 325° Northwest  Level FlightAware Approximate
Mon 10:33:00 AM 24.8673 -90.1338 325° Northwest  Level FlightAware Approximate
Mon 10:34:00 AM 24.9609 -90.2065 325° Northwest  Level FlightAware Approximate
Mon 10:35:00 AM 25.0545 -90.2793 325° Northwest  Level FlightAware Approximate
Mon 10:36:00 AM 25.1481 -90.3522 325° Northwest  Level FlightAware Approximate
Mon 10:37:00 AM 25.2410 -90.4261 324° Northwest  Level FlightAware Approximate
Mon 10:38:00 AM 25.3338 -90.5004 325° Northwest  Level FlightAware Approximate
Mon 10:39:00 AM 25.4241 -90.5692 325° Northwest  Level FlightAware Approximate
Mon 10:40:00 AM 25.5143 -90.6382 325° Northwest  Level FlightAware Approximate
Mon 10:41:00 AM 25.6045 -90.7073 325° Northwest  Level FlightAware Approximate
Mon 10:42:00 AM 25.6947 -90.7765 325° Northwest  Level FlightAware Approximate
Mon 10:43:00 AM 25.7848 -90.8458 325° Northwest  Level FlightAware Approximate
Mon 10:44:00 AM 25.8749 -90.9152 325° Northwest  Level FlightAware Approximate
Mon 10:45:00 AM 25.9649 -90.9847 325° Northwest  Level FlightAware Approximate
Mon 10:46:00 AM 26.0550 -91.0543 325° Northwest  Level FlightAware Approximate
Mon 10:47:00 AM 26.1450 -91.1240 325° Northwest  Level FlightAware Approximate
Mon 10:48:00 AM 26.2349 -91.1938 325° Northwest  Level FlightAware Approximate
Mon 10:49:00 AM 26.3248 -91.2637 325° Northwest  Level FlightAware Approximate
Mon 10:50:00 AM 26.4133 -91.3359 323° Northwest  Level FlightAware Approximate
Mon 10:51:00 AM 26.5013 -91.4090 323° Northwest  Level FlightAware Approximate
Mon 10:52:00 AM 26.5892 -91.4823 323° Northwest  Level FlightAware Approximate
Mon 10:53:00 AM 26.6770 -91.5556 323° Northwest  Level FlightAware Approximate
Mon 10:54:00 AM 26.7659 -91.6273 329° Northwest  Level FlightAware Approximate
Mon 10:55:00 AM 26.8602 -91.6901 329° Northwest  Level FlightAware Approximate
Mon 10:56:00 AM 26.9513 -91.7582 324° Northwest  Level FlightAware Approximate
Mon 10:57:00 AM 27.0401 -91.8303 324° Northwest  Level FlightAware Approximate
Mon 10:58:00 AM 27.1289 -91.9026 324° Northwest  Level FlightAware Approximate
Mon 10:59:00 AM 27.2174 -91.9753 324° Northwest  Level FlightAware Approximate
Mon 10:59:55 AM 26.6922 -91.5600 323° Northwest 425 489 36,000  Level Houston Center
Mon 11:00:00 AM 27.3056 -92.0485 324° Northwest  Level FlightAware Approximate
Mon 11:00:57 AM 26.7928 -91.6431 324° Northwest 444 511 35,900  Level Houston Center
Mon 11:01:00 AM 27.3938 -92.1218 324° Northwest  Level FlightAware Approximate
Mon 11:01:59 AM 26.9103 -91.7386 324° Northwest 444 511 36,000  Level Houston Center
Mon 11:02:00 AM 27.4820 -92.1952 324° Northwest  Level FlightAware Approximate
Mon 11:03:00 AM 27.5701 -92.2688 324° Northwest  Level FlightAware Approximate
Mon 11:03:01 AM 27.0106 -91.8178 325° Northwest 443 510 36,000  Level Houston Center
Mon 11:04:00 AM 27.6582 -92.3424 323° Northwest  Level FlightAware Approximate
Mon 11:04:03 AM 27.1117 -91.8978 325° Northwest 443 510 36,000  Level Houston Center
Mon 11:05:06 AM 27.2117 -91.9811 324° Northwest 444 511 36,000  Level Houston Center
Mon 11:06:00 AM 27.2849 -92.0386 324° Northwest  Level FlightAware Approximate
Mon 11:06:08 AM 27.3131 -92.0619 325° Northwest 444 511 36,000  Level Houston Center
Mon 11:07:10 AM 27.4342 -92.1589 325° Northwest 445 512 36,000 -48 Level Houston Center
Mon 11:08:12 AM 27.5342 -92.2422 324° Northwest 445 512 35,900  Descending Houston Center
Mon 11:09:14 AM 27.6342 -92.3228 324° Northwest 445 512 36,000  Climbing Houston Center
Mon 11:10:16 AM 27.7353 -92.4033 325° Northwest 444 511 35,900  Descending Houston Center
Mon 11:11:19 AM 27.8353 -92.4867 324° Northwest 445 512 36,000  Climbing Houston Center
Mon 11:12:21 AM 27.9358 -92.5694 324° Northwest 445 512 35,900 -48 Descending Houston Center
Mon 11:13:23 AM 28.0567 -92.6675 324° Northwest 446 513 35,900 48 Level Houston Center
Mon 11:14:25 AM 28.1578 -92.7511 324° Northwest 446 513 36,000  Climbing Houston Center
Mon 11:15:27 AM 28.2581 -92.8361 323° Northwest 447 514 35,900  Descending Houston Center
Mon 11:24:23 AM 29.1569 -93.5889 329° Northwest 452 520 36,000 10 Climbing Fort Worth Center
Mon 11:25:26 AM 29.2578 -93.6747 323° Northwest 452 520 36,000  Level Fort Worth Center
Mon 11:26:28 AM 29.3578 -93.7603 323° Northwest 452 520 36,000 -48 Level Fort Worth Center
Mon 11:27:30 AM 29.4778 -93.8606 324° Northwest 448 516 35,900  Descending Fort Worth Center
Mon 11:28:00 AM 29.3654 -93.7682 324° Northwest  Level FlightAware Approximate
Mon 11:28:55 AM 29.6075 -93.9697 324° Northwest 443 510 36,000  Level Houston Center
Mon 11:29:00 AM 29.4537 -93.8428 324° Northwest  Level FlightAware Approximate
Mon 11:29:57 AM 29.7064 -94.0531 324° Northwest 442 509 35,900  Level Houston Center
Mon 11:30:00 AM 29.5420 -93.9175 324° Northwest  Level FlightAware Approximate
Mon 11:31:00 AM 29.6308 -93.9913 325° Northwest  Level FlightAware Approximate
Mon 11:31:00 AM 29.8106 -94.1253 329° Northwest 437 503 35,900  Level Houston Center
Mon 11:32:00 AM 29.7229 -94.0597 330° Northwest  Level FlightAware Approximate
Mon 11:32:02 AM 29.9353 -94.2122 329° Northwest 436 502 36,000  Level Houston Center
Mon 11:33:00 AM 29.8174 -94.1237 329° Northwest  Level FlightAware Approximate
Mon 11:33:04 AM 30.0394 -94.2861 328° Northwest 436 502 36,000  Level Houston Center
Mon 11:34:00 AM 29.9111 -94.1892 329° Northwest  Level FlightAware Approximate
Mon 11:34:06 AM 30.1444 -94.3608 328° Northwest 437 503 36,000  Level Houston Center
Mon 11:35:47 AM 30.3181 -94.4847 328° Northwest 437 503 35,900  Descending Fort Worth Center
Mon 11:38:54 AM 30.6325 -94.7100 328° Northwest 439 505 36,000  Climbing Fort Worth Center
Mon 11:39:56 AM 30.7583 -94.8003 328° Northwest 439 505 35,900  Descending Fort Worth Center
Mon 11:40:58 AM 30.8622 -94.8764 328° Northwest 439 505 36,000 48 Climbing Fort Worth Center
Mon 11:42:00 AM 30.9678 -94.9536 328° Northwest 440 506 36,000  Level Fort Worth Center
Mon 11:43:02 AM 31.0736 -95.0306 328° Northwest 440 506 36,000  Level Fort Worth Center
Mon 11:44:04 AM 31.1803 -95.1067 329° Northwest 440 506 36,000 -144 Level Fort Worth Center
Mon 11:45:07 AM 31.2844 -95.1811 329° Northwest 439 505 35,700 -624 Descending Fort Worth Center
Mon 11:46:09 AM 31.3886 -95.2594 327° Northwest 439 505 34,700 -1,016 Descending Fort Worth Center
Mon 11:47:11 AM 31.4883 -95.3772 315° West 444 511 33,600 -968 Descending Fort Worth Center
Mon 11:48:13 AM 31.5744 -95.4811 314° West 444 511 32,700 -871 Descending Fort Worth Center
Mon 11:49:15 AM 31.6622 -95.5842 315° West 449 517 31,800 -968 Descending Fort Worth Center
Mon 11:50:17 AM 31.7531 -95.6936 314° West 449 517 30,700 -1,008 Descending Fort Worth Center
Mon 11:51:20 AM 31.8389 -95.7964 315° West 445 512 29,700 -1,248 Descending Fort Worth Center
Mon 11:52:22 AM 31.9250 -95.9000 314° West 444 511 28,100 -2,129 Descending Fort Worth Center
Mon 11:53:24 AM 32.0219 -96.0167 314° West 421 484 25,300 -2,468 Descending Fort Worth Center
Mon 11:54:26 AM 32.1025 -96.1164 314° West 421 484 23,000 -2,226 Descending Fort Worth Center
Mon 11:55:28 AM 32.1803 -96.2094 315° West 404 465 20,700 -2,274 Descending Fort Worth Center
Mon 11:56:30 AM 32.2664 -96.3128 315° West 395 455 18,300 -2,081 Descending Fort Worth Center
Mon 11:57:32 AM 32.3406 -96.3997 315° West 377 434 16,400 -1,776 Descending Fort Worth Center
Mon 11:58:35 AM 32.4122 -96.4850 315° West 367 422 14,600 -1,762 Descending Fort Worth Center
Mon 11:59:38 AM 32.4886 -96.5756 315° West 362 417 12,700 -1,742 Descending Fort Worth Center
Mon 12:00:39 PM 32.5583 -96.6592 315° West 359 413 11,000 -878 Descending Fort Worth Center
Mon 12:01:41 PM 32.6319 -96.7478 315° West 353 406 10,900 -48 Descending Fort Worth Center
Mon 12:02:43 PM 32.6939 -96.8211 315° West 310 357 10,900  Level Fort Worth Center
Mon 12:03:45 PM 32.7517 -96.8897 315° West 289 333 10,900 -432 Level Fort Worth Center
Mon 12:04:48 PM 32.8258 -96.9036 351° North 259 298 10,000 -1,200 Descending Fort Worth Center
Mon 12:05:50 PM 32.8953 -96.9053 359° North 254 292 8,400 -1,597 Descending Fort Worth Center
Mon 12:06:52 PM 32.9672 -96.9047 360° North 242 278 6,700 -1,452 Descending Fort Worth Center
Mon 12:07:54 PM 33.0328 -96.9069 358° North 238 274 5,400 -1,790 Descending Fort Worth Center
Mon 12:08:56 PM 33.0469 -96.9717 285° West 200 230 3,000 -1,500 Descending Fort Worth Center
Mon 12:09:58 PM 33.0383 -97.0294 260° West 183 211 2,300 -484 Descending Fort Worth Center
Mon 12:11:00 PM 32.9931 -97.0539 204° Southwest 179 206 2,000 -528 Descending Fort Worth Center
Mon 12:12:03 PM 32.9506 -97.0547 181° South 155 178 1,200 -672 Descending Fort Worth Center
Mon 12:13:05 PM 32.9067 -97.0553 181° South 150 173 600 -581 Descending Fort Worth Center

Login

Don't have an account? Register now (free) for customized features, flight alerts, and more!